createdAt,value
2023-03-14T00:02:02.739Z,0.50
2023-03-14T00:07:04.553Z,0.98
2023-03-14T00:12:06.235Z,0.55
2023-03-14T00:17:07.841Z,0.20
2023-03-14T00:22:09.318Z,0.60
2023-03-14T00:27:10.806Z,0.52
2023-03-14T00:32:12.335Z,0.60
2023-03-14T00:37:13.876Z,0.30
2023-03-14T00:42:15.464Z,0.40
2023-03-14T00:47:17.230Z,0.57
2023-03-14T00:52:18.702Z,0.50
2023-03-14T00:57:20.256Z,0.35
2023-03-14T01:02:21.907Z,0.20
2023-03-14T01:07:23.424Z,0.30
2023-03-14T01:12:24.907Z,0.38
2023-03-14T01:17:26.406Z,0.22
2023-03-14T01:22:27.911Z,0.32
2023-03-14T01:27:29.379Z,0.40
2023-03-14T01:32:31.327Z,0.30
2023-03-14T01:37:32.868Z,0.63
2023-03-14T01:42:34.355Z,0.47
2023-03-14T01:47:35.836Z,0.20
2023-03-14T01:52:49.573Z,0.40
2023-03-14T01:57:53.116Z,0.30
2023-03-14T02:02:56.737Z,0.28
2023-03-14T02:07:59.737Z,0.10
2023-03-14T02:13:03.070Z,0.17
2023-03-14T02:18:05.188Z,0.32
2023-03-14T02:23:06.886Z,0.20
2023-03-14T02:28:08.649Z,0.10
2023-03-14T02:33:12.140Z,0.30
2023-03-14T02:38:28.837Z,0.25
2023-03-14T02:43:30.363Z,0.20
2023-03-14T02:48:36.360Z,0.20
2023-03-14T02:53:38.880Z,0.30
2023-03-14T02:58:40.606Z,0.20
2023-03-14T03:03:42.565Z,0.68
2023-03-14T03:08:44.071Z,0.50
2023-03-14T03:13:45.537Z,0.25
2023-03-14T03:18:47.028Z,0.43
2023-03-14T03:23:48.654Z,0.55
2023-03-14T03:28:51.672Z,0.55
2023-03-14T03:33:53.131Z,0.55
2023-03-14T03:38:54.588Z,0.35
2023-03-14T03:43:56.088Z,0.25
2023-03-14T03:48:58.308Z,0.13
2023-03-14T03:53:59.775Z,0.35
2023-03-14T03:59:01.382Z,0.47
2023-03-14T04:04:02.971Z,0.82
2023-03-14T04:09:05.113Z,0.30
2023-03-14T04:14:07.069Z,0.52
2023-03-14T04:19:08.541Z,0.50
2023-03-14T04:24:10.043Z,0.50
2023-03-14T04:29:13.238Z,0.70
2023-03-14T04:34:14.892Z,0.50
2023-03-14T04:39:16.391Z,0.52
2023-03-14T04:44:17.839Z,0.80
2023-03-14T04:49:19.310Z,0.30
2023-03-14T04:54:20.811Z,0.30
2023-03-14T04:59:22.563Z,0.57
2023-03-14T05:04:24.054Z,0.60
2023-03-14T05:09:25.543Z,1.00
2023-03-14T05:14:27.075Z,0.50
2023-03-14T05:19:28.590Z,0.52
2023-03-14T05:24:30.111Z,0.55
2023-03-14T05:29:31.638Z,0.80
2023-03-14T05:34:33.231Z,0.52
2023-03-14T05:39:34.705Z,0.55
2023-03-14T05:44:36.189Z,0.43
2023-03-14T05:49:37.667Z,0.95
2023-03-14T05:54:39.416Z,0.52
2023-03-14T05:59:40.948Z,0.43
2023-03-14T06:04:42.598Z,0.70
2023-03-14T06:09:44.159Z,0.40
2023-03-14T06:14:45.674Z,0.65
2023-03-14T06:19:47.197Z,0.52
2023-03-14T06:24:48.810Z,0.43
2023-03-14T06:29:50.313Z,0.40
2023-03-14T06:34:51.822Z,0.40
2023-03-14T06:39:53.294Z,0.28
2023-03-14T06:44:54.828Z,0.70
2023-03-14T06:49:56.314Z,0.50
2023-03-14T06:54:57.783Z,0.77
2023-03-14T06:59:59.635Z,0.45
2023-03-14T07:05:01.661Z,0.32
2023-03-14T07:10:03.192Z,0.45
2023-03-14T07:15:17.684Z,0.50
2023-03-14T07:20:19.986Z,0.38
2023-03-14T07:25:21.495Z,0.43
2023-03-14T07:30:23.023Z,0.40
2023-03-14T07:35:24.504Z,0.30
2023-03-14T07:40:25.985Z,0.30
2023-03-14T07:45:28.412Z,0.40
2023-03-14T07:50:29.976Z,0.15
2023-03-14T07:55:31.526Z,0.30
2023-03-14T08:00:33.200Z,0.35
2023-03-14T08:05:38.022Z,0.20
2023-03-14T08:10:40.247Z,0.30
2023-03-14T08:15:42.140Z,0.10
2023-03-14T08:20:43.657Z,0.30
2023-03-14T08:25:45.265Z,0.50
2023-03-14T08:30:47.871Z,0.20
2023-03-14T08:35:49.605Z,0.20
2023-03-14T08:40:56.147Z,0.30
2023-03-14T08:46:00.978Z,0.13
2023-03-14T08:51:13.758Z,0.13
2023-03-14T08:56:15.229Z,0.10
2023-03-14T09:01:17.408Z,0.20
2023-03-14T09:06:19.073Z,0.10
2023-03-14T09:11:20.705Z,0.25
2023-03-14T09:16:22.309Z,0.10
2023-03-14T09:21:23.969Z,0.10
2023-03-14T09:26:25.461Z,0.00
2023-03-14T09:31:26.999Z,0.15
2023-03-14T09:36:28.575Z,0.45
2023-03-14T09:41:34.888Z,0.70
2023-03-14T09:46:37.311Z,0.10
2023-03-14T09:51:38.811Z,0.15
2023-03-14T09:56:40.370Z,0.10
2023-03-14T10:01:41.972Z,0.08
2023-03-14T10:06:43.497Z,0.17
2023-03-14T10:11:44.982Z,0.17
2023-03-14T10:16:47.122Z,0.25
2023-03-14T10:21:53.546Z,0.13
2023-03-14T10:26:56.483Z,0.10
2023-03-14T10:32:02.948Z,0.10
2023-03-14T10:37:16.742Z,0.20
2023-03-14T10:42:21.422Z,0.20
2023-03-14T10:47:24.296Z,0.17
2023-03-14T10:52:31.060Z,0.20
2023-03-14T10:57:43.850Z,0.43
2023-03-14T11:02:54.907Z,0.20
2023-03-14T11:08:00.866Z,0.30
2023-03-14T11:13:07.979Z,0.13
2023-03-14T11:18:28.250Z,0.10
2023-03-14T11:23:47.810Z,0.10
2023-03-14T11:28:51.512Z,0.13
2023-03-14T11:33:52.974Z,0.30
2023-03-14T11:38:57.301Z,0.20
2023-03-14T11:44:01.044Z,0.20
2023-03-14T11:49:15.044Z,0.15
2023-03-14T11:54:39.648Z,0.17
2023-03-14T12:00:05.724Z,0.30
2023-03-14T12:05:16.022Z,0.43
2023-03-14T12:10:17.572Z,0.20
2023-03-14T12:15:21.460Z,0.20
2023-03-14T12:20:24.123Z,0.30
2023-03-14T12:25:26.741Z,0.20
2023-03-14T12:30:33.595Z,0.30
2023-03-14T12:35:39.454Z,0.20
2023-03-14T12:40:42.732Z,0.10
2023-03-14T12:46:04.249Z,0.17
2023-03-14T12:51:12.344Z,0.25
2023-03-14T12:56:16.910Z,0.30
2023-03-14T13:01:20.115Z,0.10
2023-03-14T13:06:40.145Z,0.28
2023-03-14T13:11:42.076Z,0.37
2023-03-14T13:16:44.353Z,0.30
2023-03-14T13:21:46.027Z,0.28
2023-03-14T13:26:47.878Z,0.20
2023-03-14T13:31:51.318Z,0.22
2023-03-14T13:36:53.731Z,0.10
2023-03-14T13:41:56.278Z,0.17
2023-03-14T13:47:05.102Z,0.15
2023-03-14T13:52:22.619Z,0.20
2023-03-14T13:57:24.390Z,0.20
2023-03-14T14:02:26.892Z,0.20
2023-03-14T14:07:29.096Z,0.20
2023-03-14T14:12:30.774Z,0.20
2023-03-14T14:17:35.100Z,0.25
2023-03-14T14:22:36.976Z,0.20
2023-03-14T14:27:40.310Z,0.15
2023-03-14T14:32:41.900Z,0.10
2023-03-14T14:37:44.725Z,0.20
2023-03-14T14:42:46.518Z,0.40
2023-03-14T14:47:56.991Z,0.15
2023-03-14T14:53:02.900Z,0.10
2023-03-14T14:58:23.840Z,0.20
2023-03-14T15:03:27.773Z,0.60
2023-03-14T15:08:29.562Z,0.30
2023-03-14T15:13:31.084Z,0.47
2023-03-14T15:18:32.892Z,0.40
2023-03-14T15:23:34.369Z,0.55
2023-03-14T15:28:35.836Z,0.47
2023-03-14T15:33:37.486Z,0.60
2023-03-14T15:38:39.003Z,0.80
2023-03-14T15:43:40.491Z,0.57
2023-03-14T15:48:42.109Z,0.80
2023-03-14T15:53:44.655Z,0.82
2023-03-14T15:58:49.339Z,0.60
2023-03-14T16:03:53.752Z,1.10
2023-03-14T16:08:55.557Z,0.90
2023-03-14T16:13:57.046Z,0.63
2023-03-14T16:18:58.538Z,0.50
2023-03-14T16:24:00.884Z,0.43
2023-03-14T16:29:02.396Z,0.47
2023-03-14T16:34:04.851Z,0.60
2023-03-14T16:39:06.347Z,0.30
2023-03-14T16:44:07.900Z,0.40
2023-03-14T16:49:09.392Z,0.30
2023-03-14T16:54:10.909Z,0.40
2023-03-14T16:59:12.631Z,0.50
2023-03-14T17:04:14.269Z,0.47
2023-03-14T17:09:15.770Z,0.30
2023-03-14T17:14:17.319Z,0.40
2023-03-14T17:19:18.801Z,0.88
2023-03-14T17:24:20.312Z,0.40
2023-03-14T17:29:21.844Z,0.32
2023-03-14T17:34:23.352Z,0.43
2023-03-14T17:39:24.859Z,0.40
2023-03-14T17:44:26.424Z,0.60
2023-03-14T17:49:27.956Z,0.52
2023-03-14T17:54:29.439Z,0.57
2023-03-14T17:59:31.010Z,0.70
2023-03-14T18:04:33.186Z,0.45
2023-03-14T18:09:34.713Z,0.32
2023-03-14T18:14:36.891Z,1.05
2023-03-14T18:19:39.344Z,1.58
2023-03-14T18:24:40.905Z,0.88
2023-03-14T18:29:42.648Z,0.80
2023-03-14T18:34:44.276Z,1.17
2023-03-14T18:39:45.822Z,0.77
2023-03-14T18:44:47.553Z,0.82
2023-03-14T18:49:49.029Z,0.50
2023-03-14T18:54:50.622Z,1.05
2023-03-14T18:59:56.471Z,0.80
2023-03-14T19:04:58.047Z,0.75
2023-03-14T19:10:00.077Z,0.75
2023-03-14T19:15:01.613Z,0.68
2023-03-14T19:20:03.372Z,0.80
2023-03-14T19:25:05.993Z,0.68
2023-03-14T19:30:07.814Z,0.60
2023-03-14T19:35:09.383Z,0.57
2023-03-14T19:40:12.067Z,0.63
2023-03-14T19:45:13.886Z,1.30
2023-03-14T19:50:15.618Z,1.08
2023-03-14T19:55:17.134Z,1.00
2023-03-14T20:00:19.500Z,0.68
2023-03-14T20:05:22.442Z,0.65
2023-03-14T20:10:23.938Z,0.47
2023-03-14T20:15:25.519Z,0.60
2023-03-14T20:20:27.778Z,0.88
2023-03-14T20:25:29.281Z,0.75
2023-03-14T20:30:31.354Z,0.80
2023-03-14T20:35:32.955Z,0.50
2023-03-14T20:40:34.449Z,0.60
2023-03-14T20:45:35.958Z,0.50
2023-03-14T20:50:37.486Z,0.75
2023-03-14T20:55:39.154Z,1.38
2023-03-14T21:00:41.056Z,1.00
2023-03-14T21:05:43.190Z,1.30
2023-03-14T21:10:52.009Z,1.10
2023-03-14T21:15:53.608Z,2.15
2023-03-14T21:20:56.588Z,1.33
2023-03-14T21:25:58.142Z,1.00
2023-03-14T21:31:09.616Z,0.90
2023-03-14T21:36:11.194Z,0.70
2023-03-14T21:41:14.160Z,0.50
2023-03-14T21:46:15.723Z,0.40
2023-03-14T21:51:17.287Z,0.47
2023-03-14T21:56:18.842Z,0.40
2023-03-14T22:01:20.476Z,0.60
2023-03-14T22:06:22.002Z,0.47
2023-03-14T22:11:23.979Z,0.90
2023-03-14T22:16:25.486Z,0.50
2023-03-14T22:21:27.001Z,0.70
2023-03-14T22:26:28.524Z,0.77
2023-03-14T22:31:30.059Z,0.40
2023-03-14T22:36:31.598Z,0.57
2023-03-14T22:41:33.903Z,0.50
2023-03-14T22:46:35.381Z,0.50
2023-03-14T22:51:36.892Z,0.35
2023-03-14T22:56:38.579Z,0.52
2023-03-14T23:01:40.123Z,0.40
2023-03-14T23:06:41.614Z,0.38
2023-03-14T23:11:43.093Z,0.70
2023-03-14T23:16:47.433Z,0.57
2023-03-14T23:21:49.007Z,0.40
2023-03-14T23:26:51.734Z,0.28
2023-03-14T23:31:53.304Z,0.65
2023-03-14T23:36:54.778Z,0.50
2023-03-14T23:41:56.239Z,0.60
2023-03-14T23:46:57.789Z,0.30
2023-03-14T23:51:59.276Z,0.50
2023-03-14T23:57:02.552Z,0.30
